Time;durP1;ratioP1;P1;durP2;ratioP2;P2;SDS_P1;SDS_P2;PMS_P1;PMS_P2;Temp;Humidity;BMP_temperature;BMP_pressure;BME280_temperature;BME280_humidity;BME280_pressure;Samples;Min_cycle;Max_cycle;Signal;HPM_P1;HPM_P2
2022/05/12 00:04:05;;;;;;;;;;;;;;;11.06;65.04492;101375.9;;;;-79
2022/05/12 00:09:06;;;;;;;;;;;;;;;10.98;65.03418;101386.5;;;;-81
2022/05/12 00:14:06;;;;;;;;;;;;;;;10.9;64.87891;101398.6;;;;-83
2022/05/12 00:19:05;;;;;;;;;;;;;;;10.86;65.02637;101404.1;;;;-83
2022/05/12 00:20:25;;;;;;;3.8;1;;;;;;;;;;;;;-80
2022/05/12 00:24:06;;;;;;;;;;;;;;;10.79;64.76074;101415.2;;;;-80
2022/05/12 00:29:07;;;;;;;;;;;;;;;10.74;64.88672;101419.7;;;;-82
2022/05/12 00:34:06;;;;;;;;;;;;;;;10.67;64.95508;101419.9;;;;-81
2022/05/12 00:39:14;;;;;;;;;;;;;;;10.64;64.84961;101425.2;;;;-81
2022/05/12 00:44:06;;;;;;;;;;;;;;;10.57;64.59473;101432.6;;;;-82
2022/05/12 00:49:10;;;;;;;;;;;;;;;10.51;64.93066;101432.3;;;;-81
2022/05/12 00:50:29;;;;;;;4.5;0.9;;;;;;;;;;;;;-83
2022/05/12 00:54:09;;;;;;;;;;;;;;;10.43;64.875;101437.5;;;;-81
2022/05/12 00:59:12;;;;;;;;;;;;;;;10.41;64.83789;101439.2;;;;-82
2022/05/12 01:09:06;;;;;;;;;;;;;;;10.34;65.04883;101448.8;;;;-80
2022/05/12 01:14:11;;;;;;;;;;;;;;;10.29;65.14258;101453.2;;;;-81
2022/05/12 01:19:08;;;;;;;;;;;;;;;10.25;65.3252;101461.9;;;;-81
2022/05/12 01:20:27;;;;;;;3.6;1.2;;;;;;;;;;;;;-81
2022/05/12 01:24:05;;;;;;;;;;;;;;;10.23;65.36719;101468.4;;;;-80
2022/05/12 01:29:07;;;;;;;;;;;;;;;10.2;66.02832;101474.9;;;;-81
2022/05/12 01:34:08;;;;;;;;;;;;;;;10.17;65.60352;101477.5;;;;-80
2022/05/12 01:39:06;;;;;;;;;;;;;;;10.13;66.16309;101481;;;;-79
2022/05/12 01:44:06;;;;;;;;;;;;;;;10.1;66.10156;101481.5;;;;-82
2022/05/12 01:49:05;;;;;;;;;;;;;;;10.08;66.13184;101482.8;;;;-81
2022/05/12 01:50:29;;;;;;;4.6;1.3;;;;;;;;;;;;;-82
2022/05/12 01:54:16;;;;;;;;;;;;;;;10.07;66.56348;101479.5;;;;-81
2022/05/12 01:59:12;;;;;;;;;;;;;;;10.06;66.15137;101481;;;;-80
2022/05/12 02:04:08;;;;;;;;;;;;;;;10.08;65.98828;101488.6;;;;-80
2022/05/12 02:09:06;;;;;;;;;;;;;;;10.08;65.64355;101491.9;;;;-81
2022/05/12 02:14:13;;;;;;;;;;;;;;;10.07;65.50781;101500;;;;-81
2022/05/12 02:19:11;;;;;;;;;;;;;;;10.02;65.5791;101505.7;;;;-81
2022/05/12 02:20:28;;;;;;;3.4;1.1;;;;;;;;;;;;;-81
2022/05/12 02:24:05;;;;;;;;;;;;;;;9.99;65.37598;101516.3;;;;-81
2022/05/12 02:29:06;;;;;;;;;;;;;;;9.93;65.4668;101527.4;;;;-80
2022/05/12 02:34:08;;;;;;;;;;;;;;;9.91;65.47363;101530.5;;;;-82
2022/05/12 02:39:08;;;;;;;;;;;;;;;9.91;65.27344;101536.3;;;;-81
2022/05/12 02:44:06;;;;;;;;;;;;;;;9.88;65.18066;101542.3;;;;-82
2022/05/12 02:49:05;;;;;;;;;;;;;;;9.82;65.38184;101547.6;;;;-81
2022/05/12 02:50:30;;;;;;;5.2;1.5;;;;;;;;;;;;;-82
2022/05/12 02:54:06;;;;;;;;;;;;;;;9.8;65.39063;101557.7;;;;-81
2022/05/12 02:59:05;;;;;;;;;;;;;;;9.8;65.29102;101551.5;;;;-79
2022/05/12 03:04:05;;;;;;;;;;;;;;;9.76;65.28516;101552;;;;-81
2022/05/12 03:09:07;;;;;;;;;;;;;;;9.72;64.82422;101557.5;;;;-81
2022/05/12 03:14:07;;;;;;;;;;;;;;;9.68;64.68555;101570.2;;;;-81
2022/05/12 03:19:06;;;;;;;;;;;;;;;9.65;64.55859;101571.3;;;;-81
2022/05/12 03:20:32;;;;;;;4.2;1.5;;;;;;;;;;;;;-82
2022/05/12 03:24:06;;;;;;;;;;;;;;;9.6;64.45117;101579.2;;;;-82
2022/05/12 03:29:07;;;;;;;;;;;;;;;9.54;64.62012;101585.9;;;;-81
2022/05/12 03:34:06;;;;;;;;;;;;;;;9.49;64.6123;101590;;;;-82
2022/05/12 03:39:06;;;;;;;;;;;;;;;9.43;64.49219;101593.6;;;;-80
2022/05/12 03:49:05;;;;;;;;;;;;;;;9.35;64.58105;101607.4;;;;-80
2022/05/12 03:50:31;;;;;;;5.8;1.4;;;;;;;;;;;;;-80
2022/05/12 03:54:07;;;;;;;;;;;;;;;9.31;64.64258;101609.4;;;;-80
2022/05/12 03:59:06;;;;;;;;;;;;;;;9.3;64.88477;101615.3;;;;-81
2022/05/12 04:04:07;;;;;;;;;;;;;;;9.27;65;101613.3;;;;-81
2022/05/12 04:09:05;;;;;;;;;;;;;;;9.28;64.74902;101629;;;;-81
2022/05/12 04:14:06;;;;;;;;;;;;;;;9.27;64.7002;101627.9;;;;-83
2022/05/12 04:19:08;;;;;;;;;;;;;;;9.26;64.5791;101635.3;;;;-82
2022/05/12 04:20:35;;;;;;;5;1.4;;;;;;;;;;;;;-81
2022/05/12 04:24:06;;;;;;;;;;;;;;;9.27;64.75586;101636.5;;;;-79
2022/05/12 04:29:05;;;;;;;;;;;;;;;9.26;64.68945;101644.1;;;;-81
2022/05/12 04:39:06;;;;;;;;;;;;;;;9.27;64.99023;101663.3;;;;-82
2022/05/12 04:44:06;;;;;;;;;;;;;;;9.26;64.78906;101662.5;;;;-81
2022/05/12 04:49:05;;;;;;;;;;;;;;;9.29;64.79492;101667.5;;;;-82
2022/05/12 04:50:33;;;;;;;3.2;1.3;;;;;;;;;;;;;-81
2022/05/12 04:54:09;;;;;;;;;;;;;;;9.31;64.34277;101671;;;;-83
2022/05/12 04:59:05;;;;;;;;;;;;;;;9.35;64.27051;101679;;;;-82
2022/05/12 05:04:06;;;;;;;;;;;;;;;9.37;64.27344;101688.1;;;;-80
2022/05/12 05:09:06;;;;;;;;;;;;;;;9.41;64.65625;101687.3;;;;-79
2022/05/12 05:14:08;;;;;;;;;;;;;;;9.46;65.16309;101698.1;;;;-81
2022/05/12 05:19:06;;;;;;;;;;;;;;;9.51;65.3252;101706.8;;;;-81
2022/05/12 05:20:33;;;;;;;3.3;1.4;;;;;;;;;;;;;-80
2022/05/12 05:24:10;;;;;;;;;;;;;;;9.55;65.52051;101706;;;;-83
2022/05/12 05:29:06;;;;;;;;;;;;;;;9.65;65.98828;101712.5;;;;-80
2022/05/12 05:34:05;;;;;;;;;;;;;;;9.99;67.15039;101717.1;;;;-80
2022/05/12 05:39:06;;;;;;;;;;;;;;;10.64;65.01758;101725.9;;;;-81
2022/05/12 05:44:06;;;;;;;;;;;;;;;11.32;64.23926;101725.4;;;;-80
2022/05/12 05:49:08;;;;;;;;;;;;;;;12.03;62.65723;101743.2;;;;-80
2022/05/12 05:53:23;;;;;;;6.8;1.7;;;;;;;;;;;;;-80
2022/05/12 05:54:05;;;;;;;;;;;;;;;12.69;61.23047;101748.5;;;;-80
2022/05/12 05:59:05;;;;;;;;;;;;;;;13.32;59.9082;101760.3;;;;-81
2022/05/12 06:04:05;;;;;;;;;;;;;;;13.88;58.72852;101770.7;;;;-82
2022/05/12 06:09:08;;;;;;;;;;;;;;;14.47;57.62695;101779.1;;;;-81
2022/05/12 06:14:08;;;;;;;;;;;;;;;14.98;56.54688;101785.6;;;;-81
2022/05/12 06:19:05;;;;;;;;;;;;;;;15.45;55.75;101791.3;;;;-81
2022/05/12 06:20:35;;;;;;;4.2;1.5;;;;;;;;;;;;;-81
2022/05/12 06:24:05;;;;;;;;;;;;;;;15.89;54.99219;101799.4;;;;-81
2022/05/12 06:29:06;;;;;;;;;;;;;;;16.34;54.18945;101808.5;;;;-82
2022/05/12 06:34:06;;;;;;;;;;;;;;;16.76;53.67676;101813.5;;;;-81
2022/05/12 06:39:08;;;;;;;;;;;;;;;17.1;53.07324;101814.6;;;;-81
2022/05/12 06:44:05;;;;;;;;;;;;;;;17.48;52.4834;101814.8;;;;-80
2022/05/12 06:49:05;;;;;;;;;;;;;;;17.78;52.00781;101821;;;;-80
2022/05/12 06:50:37;;;;;;;5.3;1.7;;;;;;;;;;;;;-82
2022/05/12 06:54:07;;;;;;;;;;;;;;;18.05;51.68848;101827.5;;;;-82
2022/05/12 06:59:07;;;;;;;;;;;;;;;18.25;51.43945;101838.3;;;;-82
2022/05/12 07:04:08;;;;;;;;;;;;;;;18.49;51.13574;101848.7;;;;-82
2022/05/12 07:09:05;;;;;;;;;;;;;;;18.77;50.71484;101847;;;;-81
2022/05/12 07:14:08;;;;;;;;;;;;;;;19.06;50.14355;101844.1;;;;-79
2022/05/12 07:19:06;;;;;;;;;;;;;;;19.29;49.9082;101853.4;;;;-81
2022/05/12 07:29:06;;;;;;;;;;;;;;;19.71;49.14551;101859.1;;;;-81
2022/05/12 07:34:05;;;;;;;;;;;;;;;19.92;48.90625;101869.6;;;;-82
2022/05/12 07:39:06;;;;;;;;;;;;;;;20.15;48.65723;101879.8;;;;-82
2022/05/12 07:44:08;;;;;;;;;;;;;;;20.43;48.27734;101882.6;;;;-81
2022/05/12 07:49:08;;;;;;;;;;;;;;;20.76;47.59277;101877.9;;;;-83
2022/05/12 07:50:44;;;;;;;6.1;1.3;;;;;;;;;;;;;-82
2022/05/12 07:54:07;;;;;;;;;;;;;;;20.94;47.23438;101885.6;;;;-84
2022/05/12 07:59:05;;;;;;;;;;;;;;;21.1;46.90723;101887;;;;-81
2022/05/12 08:04:08;;;;;;;;;;;;;;;21.28;46.43457;101891.4;;;;-80
2022/05/12 08:09:05;;;;;;;;;;;;;;;21.4;46.08008;101893.7;;;;-81
2022/05/12 08:14:06;;;;;;;;;;;;;;;21.56;45.66211;101893;;;;-84
2022/05/12 08:19:05;;;;;;;;;;;;;;;21.74;45.38086;101891.5;;;;-81
2022/05/12 08:20:46;;;;;;;3.5;1.2;;;;;;;;;;;;;-80
2022/05/12 08:24:05;;;;;;;;;;;;;;;21.96;44.91113;101889.7;;;;-82
2022/05/12 08:29:05;;;;;;;;;;;;;;;22.2;44.55566;101893.9;;;;-81
2022/05/12 08:34:08;;;;;;;;;;;;;;;22.46;44.21387;101893.7;;;;-82
2022/05/12 08:39:05;;;;;;;;;;;;;;;22.65;43.75098;101902.6;;;;-80
2022/05/12 08:44:08;;;;;;;;;;;;;;;22.8;42.93652;101905.6;;;;-83
2022/05/12 08:49:08;;;;;;;;;;;;;;;22.8;42.08496;101915.5;;;;-82
2022/05/12 08:50:55;;;;;;;2;0.8;;;;;;;;;;;;;-79
2022/05/12 08:54:07;;;;;;;;;;;;;;;22.84;41.7207;101910.3;;;;-81
2022/05/12 08:59:06;;;;;;;;;;;;;;;23.05;41.80762;101913.3;;;;-82
2022/05/12 09:04:12;;;;;;;;;;;;;;;23.26;41.60938;101913.9;;;;-81
2022/05/12 09:09:07;;;;;;;;;;;;;;;23.42;40.88672;101919.2;;;;-80
2022/05/12 09:14:06;;;;;;;;;;;;;;;23.6;40.82227;101926.8;;;;-80
2022/05/12 09:19:06;;;;;;;;;;;;;;;23.88;40.4668;101922.6;;;;-83
2022/05/12 09:20:50;;;;;;;2.4;0.9;;;;;;;;;;;;;-80
2022/05/12 09:24:07;;;;;;;;;;;;;;;24.11;40.1416;101917.9;;;;-83
2022/05/12 09:29:11;;;;;;;;;;;;;;;24.26;39.4502;101925.9;;;;-81
2022/05/12 09:34:15;;;;;;;;;;;;;;;24.36;39.00879;101927.5;;;;-81
2022/05/12 09:39:06;;;;;;;;;;;;;;;24.46;38.53125;101915.8;;;;-80
2022/05/12 09:44:15;;;;;;;;;;;;;;;24.6;38.90234;101908.8;;;;-82
2022/05/12 09:49:16;;;;;;;;;;;;;;;24.86;38.12598;101916.2;;;;-76
2022/05/12 09:50:55;;;;;;;2.5;0.8;;;;;;;;;;;;;-76
2022/05/12 09:54:25;;;;;;;;;;;;;;;25;37.97656;101919;;;;-76
2022/05/12 09:59:07;;;;;;;;;;;;;;;25.28;38.06934;101915.9;;;;-75
2022/05/12 10:09:10;;;;;;;;;;;;;;;25.61;37.06445;101917.5;;;;-76
2022/05/12 10:14:07;;;;;;;;;;;;;;;25.67;36.86133;101933.5;;;;-77
2022/05/12 10:19:08;;;;;;;;;;;;;;;24.96;34.96094;101924.8;;;;-76
2022/05/12 10:20:59;;;;;;;7.4;1;;;;;;;;;;;;;-77
2022/05/12 10:24:16;;;;;;;;;;;;;;;25.23;36.11816;101927.4;;;;-76
2022/05/12 10:29:09;;;;;;;;;;;;;;;25.47;35.53516;101930.6;;;;-77
2022/05/12 10:34:12;;;;;;;;;;;;;;;25.4;35.16992;101932.2;;;;-78
2022/05/12 10:39:12;;;;;;;;;;;;;;;25.64;35.86035;101926.3;;;;-79
2022/05/12 10:44:13;;;;;;;;;;;;;;;25.75;35.49902;101931.8;;;;-76
2022/05/12 10:49:11;;;;;;;;;;;;;;;26;35.71582;101927.7;;;;-76
2022/05/12 10:51:03;;;;;;;3.1;0.8;;;;;;;;;;;;;-76
2022/05/12 10:54:16;;;;;;;;;;;;;;;26.25;35.58496;101928;;;;-74
2022/05/12 10:59:12;;;;;;;;;;;;;;;26.36;35.29102;101921.5;;;;-76
2022/05/12 11:04:08;;;;;;;;;;;;;;;26.53;35.81543;101913.4;;;;-75
2022/05/12 11:09:08;;;;;;;;;;;;;;;26.76;35.75293;101922.3;;;;-77
2022/05/12 11:14:08;;;;;;;;;;;;;;;26.78;35.49805;101912.8;;;;-76
2022/05/12 11:19:11;;;;;;;;;;;;;;;26.79;34.95215;101919.4;;;;-77
2022/05/12 11:21:07;;;;;;;3;0.8;;;;;;;;;;;;;-76
2022/05/12 11:24:11;;;;;;;;;;;;;;;26.69;34.93262;101920.9;;;;-77
2022/05/12 11:34:11;;;;;;;;;;;;;;;26.45;34.8916;101925.2;;;;-78
2022/05/12 11:39:15;;;;;;;;;;;;;;;26.4;34.5498;101935.5;;;;-76
2022/05/12 11:44:34;;;;;;;;;;;;;;;26.37;34.61719;101926.9;;;;-77
2022/05/12 11:49:13;;;;;;;;;;;;;;;26.45;34.51953;101934.3;;;;-76
2022/05/12 11:51:17;;;;;;;2.7;0.7;;;;;;;;;;;;;-77
2022/05/12 11:54:09;;;;;;;;;;;;;;;26.31;34.35742;101916.8;;;;-75
2022/05/12 11:59:18;;;;;;;;;;;;;;;26.31;34.46094;101914.2;;;;-77
2022/05/12 12:04:06;;;;;;;;;;;;;;;26.36;34.82617;101932.9;;;;-75
2022/05/12 12:09:15;;;;;;;;;;;;;;;26.41;34.5625;101924.8;;;;-76
2022/05/12 12:14:06;;;;;;;;;;;;;;;26.47;34.53223;101922.2;;;;-77
2022/05/12 12:19:09;;;;;;;;;;;;;;;26.54;34.6543;101921.8;;;;-78
2022/05/12 12:21:24;;;;;;;2.5;0.8;;;;;;;;;;;;;-76
2022/05/12 12:24:09;;;;;;;;;;;;;;;26.57;34.2373;101933.6;;;;-80
2022/05/12 12:29:16;;;;;;;;;;;;;;;26.6;34.07715;101916.6;;;;-84
2022/05/12 12:34:09;;;;;;;;;;;;;;;26.68;34.19824;101919.6;;;;-82
2022/05/12 12:39:10;;;;;;;;;;;;;;;26.82;33.8252;101919.1;;;;-81
2022/05/12 12:44:09;;;;;;;;;;;;;;;26.84;33.55957;101925.8;;;;-82
2022/05/12 12:49:07;;;;;;;;;;;;;;;26.86;33.7002;101931;;;;-82
2022/05/12 12:51:17;;;;;;;2.1;0.6;;;;;;;;;;;;;-82
2022/05/12 12:59:09;;;;;;;;;;;;;;;26.99;33.61621;101927.7;;;;-82
2022/05/12 13:04:05;;;;;;;;;;;;;;;27;33.44336;101916;;;;-83
2022/05/12 13:09:07;;;;;;;;;;;;;;;26.87;33.21289;101916.1;;;;-81
2022/05/12 13:14:05;;;;;;;;;;;;;;;26.77;33.28711;101914.1;;;;-82
2022/05/12 13:19:07;;;;;;;;;;;;;;;26.64;32.86914;101902.3;;;;-86
2022/05/12 13:21:26;;;;;;;2.8;0.8;;;;;;;;;;;;;-86
2022/05/12 13:24:08;;;;;;;;;;;;;;;26.58;33.13281;101902.3;;;;-83
2022/05/12 13:29:11;;;;;;;;;;;;;;;26.64;33.11426;101911.9;;;;-83
2022/05/12 13:34:09;;;;;;;;;;;;;;;26.61;32.9375;101903.3;;;;-82
2022/05/12 13:39:05;;;;;;;;;;;;;;;26.61;32.90234;101906.3;;;;-81
2022/05/12 13:44:33;;;;;;;;;;;;;;;26.59;32.10938;101898.5;;;;-81
2022/05/12 13:49:06;;;;;;;;;;;;;;;26.6;32.68066;101881.8;;;;-81
2022/05/12 13:51:36;;;;;;;2;0.7;;;;;;;;;;;;;-83
2022/05/12 13:54:08;;;;;;;;;;;;;;;26.59;32.67969;101887.5;;;;-83
2022/05/12 13:59:15;;;;;;;;;;;;;;;26.64;32.25293;101884.3;;;;-81
2022/05/12 14:04:21;;;;;;;;;;;;;;;26.66;32.3584;101881.2;;;;-81
2022/05/12 14:09:12;;;;;;;;;;;;;;;26.65;32.14941;101883.5;;;;-83
2022/05/12 14:19:19;;;;;;;;;;;;;;;26.38;32.09473;101880.9;;;;-83
2022/05/12 14:21:33;;;;;;;2.7;0.8;;;;;;;;;;;;;-82
2022/05/12 14:24:05;;;;;;;;;;;;;;;26.12;31.92578;101859.2;;;;-81
2022/05/12 14:29:05;;;;;;;;;;;;;;;25.96;32.44824;101862.9;;;;-83
2022/05/12 14:34:06;;;;;;;;;;;;;;;25.92;32.30664;101848.5;;;;-79
2022/05/12 14:39:05;;;;;;;;;;;;;;;25.85;32.32422;101843.1;;;;-81
2022/05/12 14:44:06;;;;;;;;;;;;;;;25.81;32.37891;101839.6;;;;-82
2022/05/12 14:49:10;;;;;;;;;;;;;;;25.86;32.67285;101842.2;;;;-82
2022/05/12 14:51:36;;;;;;;3;0.7;;;;;;;;;;;;;-81
2022/05/12 14:54:21;;;;;;;;;;;;;;;25.67;32.21777;101839;;;;-82
2022/05/12 14:59:05;;;;;;;;;;;;;;;25.58;32.81543;101840.3;;;;-80
2022/05/12 15:04:05;;;;;;;;;;;;;;;25.45;32.30762;101850.3;;;;-84
2022/05/12 15:09:05;;;;;;;;;;;;;;;25.31;32.69141;101847.5;;;;-82
2022/05/12 15:14:06;;;;;;;;;;;;;;;25.23;32.73242;101847.8;;;;-81
2022/05/12 15:19:11;;;;;;;;;;;;;;;25.15;32.88867;101841;;;;-81
2022/05/12 15:21:36;;;;;;;3.9;0.8;;;;;;;;;;;;;-82
2022/05/12 15:24:05;;;;;;;;;;;;;;;25.07;32.9873;101846.2;;;;-83
2022/05/12 15:29:05;;;;;;;;;;;;;;;25.07;32.67383;101843.6;;;;-80
2022/05/12 15:34:08;;;;;;;;;;;;;;;25.03;32.86816;101834.5;;;;-82
2022/05/12 15:39:11;;;;;;;;;;;;;;;25.04;33.20508;101842.4;;;;-85
2022/05/12 15:44:05;;;;;;;;;;;;;;;25.02;33.18066;101836.4;;;;-81
2022/05/12 15:49:06;;;;;;;;;;;;;;;25;33.27148;101833.7;;;;-83
2022/05/12 15:51:41;;;;;;;3.7;1;;;;;;;;;;;;;-79
2022/05/12 15:54:05;;;;;;;;;;;;;;;24.96;33.09473;101826.4;;;;-83
2022/05/12 15:59:05;;;;;;;;;;;;;;;24.86;33.31934;101821.3;;;;-82
2022/05/12 16:04:08;;;;;;;;;;;;;;;24.77;33.625;101823.3;;;;-81
2022/05/12 16:09:06;;;;;;;;;;;;;;;24.7;33.70117;101821.9;;;;-82
2022/05/12 16:14:05;;;;;;;;;;;;;;;24.55;33.60938;101824.2;;;;-82
2022/05/12 16:19:09;;;;;;;;;;;;;;;24.32;33.66113;101828.7;;;;-82
2022/05/12 16:21:45;;;;;;;3.2;0.9;;;;;;;;;;;;;-81
2022/05/12 16:24:05;;;;;;;;;;;;;;;24.16;34.01953;101831.3;;;;-82
2022/05/12 16:29:06;;;;;;;;;;;;;;;24.03;34.20605;101828.2;;;;-83
2022/05/12 16:34:06;;;;;;;;;;;;;;;23.87;34.28613;101819.1;;;;-81
2022/05/12 16:39:07;;;;;;;;;;;;;;;23.76;34.56738;101823;;;;-82
2022/05/12 16:44:05;;;;;;;;;;;;;;;23.56;35.02539;101826.3;;;;-81
2022/05/12 16:49:05;;;;;;;;;;;;;;;23.36;35.47168;101826.2;;;;-81
2022/05/12 16:51:49;;;;;;;3.7;0.9;;;;;;;;;;;;;-82
2022/05/12 16:54:05;;;;;;;;;;;;;;;23.16;35.52441;101829.3;;;;-82
2022/05/12 16:59:05;;;;;;;;;;;;;;;22.97;35.68262;101830.8;;;;-81
2022/05/12 17:04:05;;;;;;;;;;;;;;;22.75;35.71094;101820;;;;-83
2022/05/12 17:09:05;;;;;;;;;;;;;;;22.6;36.02148;101819.3;;;;-82
2022/05/12 17:14:05;;;;;;;;;;;;;;;22.46;36.16113;101822.1;;;;-82
2022/05/12 17:19:06;;;;;;;;;;;;;;;22.31;36.45898;101814.4;;;;-82
2022/05/12 17:21:51;;;;;;;3;0.8;;;;;;;;;;;;;-82
2022/05/12 17:24:05;;;;;;;;;;;;;;;22.16;36.78027;101818.2;;;;-82
2022/05/12 17:29:05;;;;;;;;;;;;;;;22.02;36.97656;101819.3;;;;-79
2022/05/12 17:34:07;;;;;;;;;;;;;;;21.88;37.125;101820.3;;;;-80
2022/05/12 17:39:09;;;;;;;;;;;;;;;21.66;37.21094;101819.1;;;;-80
2022/05/12 17:44:09;;;;;;;;;;;;;;;21.45;37.59473;101816.3;;;;-81
2022/05/12 17:49:05;;;;;;;;;;;;;;;21.24;37.8418;101822.6;;;;-83
2022/05/12 17:51:53;;;;;;;2.6;0.8;;;;;;;;;;;;;-84
2022/05/12 17:54:08;;;;;;;;;;;;;;;21.03;38.09961;101826.3;;;;-83
2022/05/12 17:59:07;;;;;;;;;;;;;;;20.84;38.4043;101833.5;;;;-84
2022/05/12 18:04:08;;;;;;;;;;;;;;;20.6;38.64746;101825.8;;;;-84
2022/05/12 18:09:08;;;;;;;;;;;;;;;20.37;38.79883;101830.7;;;;-83
2022/05/12 18:14:07;;;;;;;;;;;;;;;20.13;38.96094;101834.5;;;;-82
2022/05/12 18:19:05;;;;;;;;;;;;;;;19.92;39.0918;101838.5;;;;-82
2022/05/12 18:21:56;;;;;;;3;0.9;;;;;;;;;;;;;-82
2022/05/12 18:24:07;;;;;;;;;;;;;;;19.7;39.18652;101833.3;;;;-84
2022/05/12 18:29:05;;;;;;;;;;;;;;;19.45;39.32422;101834.4;;;;-83
2022/05/12 18:34:10;;;;;;;;;;;;;;;19.2;39.63379;101828.6;;;;-82
2022/05/12 18:39:11;;;;;;;;;;;;;;;18.94;39.89551;101824.7;;;;-85
2022/05/12 18:44:08;;;;;;;;;;;;;;;18.67;40.25977;101821.2;;;;-84
2022/05/12 18:49:06;;;;;;;;;;;;;;;18.39;40.66699;101819.2;;;;-85
2022/05/12 18:51:59;;;;;;;2.4;1;;;;;;;;;;;;;-85
2022/05/12 18:54:06;;;;;;;;;;;;;;;18.11;40.86914;101826.1;;;;-84
2022/05/12 18:59:09;;;;;;;;;;;;;;;17.82;41.20703;101817.6;;;;-84
2022/05/12 19:04:05;;;;;;;;;;;;;;;17.57;41.44434;101826.3;;;;-84
2022/05/12 19:09:10;;;;;;;;;;;;;;;17.28;41.84961;101829;;;;-81
2022/05/12 19:14:05;;;;;;;;;;;;;;;17.01;42.12988;101834.5;;;;-82
2022/05/12 19:19:05;;;;;;;;;;;;;;;16.75;42.70703;101831.5;;;;-82
2022/05/12 19:22:01;;;;;;;4.5;0.9;;;;;;;;;;;;;-83
2022/05/12 19:24:05;;;;;;;;;;;;;;;16.49;43.29395;101832.9;;;;-83
2022/05/12 19:29:05;;;;;;;;;;;;;;;16.24;43.9502;101835;;;;-81
2022/05/12 19:34:08;;;;;;;;;;;;;;;16;44.46973;101835.4;;;;-82
2022/05/12 19:39:08;;;;;;;;;;;;;;;15.76;45.10156;101835.7;;;;-85
2022/05/12 19:44:10;;;;;;;;;;;;;;;15.57;45.83984;101838.3;;;;-83
2022/05/12 19:49:05;;;;;;;;;;;;;;;15.37;46.32715;101843.2;;;;-80
2022/05/12 19:52:03;;;;;;;5.6;1;;;;;;;;;;;;;-82
2022/05/12 19:54:05;;;;;;;;;;;;;;;15.18;47.03125;101855.7;;;;-82
2022/05/12 19:59:05;;;;;;;;;;;;;;;14.99;47.37207;101861.8;;;;-81
2022/05/12 20:04:14;;;;;;;;;;;;;;;14.81;48.24414;101854.3;;;;-82
2022/05/12 20:09:05;;;;;;;;;;;;;;;14.67;48.28418;101855.1;;;;-82
2022/05/12 20:14:09;;;;;;;;;;;;;;;14.52;48.50488;101853.9;;;;-83
2022/05/12 20:19:05;;;;;;;;;;;;;;;14.37;48.87109;101856.1;;;;-82
2022/05/12 20:22:12;;;;;;;5.4;1.1;;;;;;;;;;;;;-82
2022/05/12 20:24:10;;;;;;;;;;;;;;;14.24;49.33008;101854.3;;;;-82
2022/05/12 20:29:05;;;;;;;;;;;;;;;14.1;49.38086;101852.8;;;;-80
2022/05/12 20:34:07;;;;;;;;;;;;;;;13.98;49.93164;101851.9;;;;-81
2022/05/12 20:39:06;;;;;;;;;;;;;;;13.85;50.00586;101851.1;;;;-80
2022/05/12 20:44:06;;;;;;;;;;;;;;;13.76;50.46777;101857.2;;;;-82
2022/05/12 20:49:05;;;;;;;;;;;;;;;13.65;50.6123;101856.5;;;;-81
2022/05/12 20:52:07;;;;;;;5.6;1.3;;;;;;;;;;;;;-82
2022/05/12 20:54:05;;;;;;;;;;;;;;;13.56;50.83789;101857.2;;;;-82
2022/05/12 20:59:08;;;;;;;;;;;;;;;13.44;51.10547;101856.8;;;;-83
2022/05/12 21:04:06;;;;;;;;;;;;;;;13.35;51.22949;101858.7;;;;-80
2022/05/12 21:09:09;;;;;;;;;;;;;;;13.28;51.42285;101859.9;;;;-81
2022/05/12 21:14:05;;;;;;;;;;;;;;;13.19;52.07617;101858.5;;;;-82
2022/05/12 21:19:05;;;;;;;;;;;;;;;13.12;51.94336;101858;;;;-81
2022/05/12 21:22:09;;;;;;;7.5;1.1;;;;;;;;;;;;;-80
2022/05/12 21:24:05;;;;;;;;;;;;;;;13.06;52.43066;101852.5;;;;-83
2022/05/12 21:29:05;;;;;;;;;;;;;;;13.04;52.01367;101849.4;;;;-82
2022/05/12 21:34:05;;;;;;;;;;;;;;;13.04;52.89941;101846;;;;-82
2022/05/12 21:39:07;;;;;;;;;;;;;;;13.04;53.19141;101852.7;;;;-83
2022/05/12 21:44:21;;;;;;;;;;;;;;;13.04;53.59473;101841.9;;;;-82
2022/05/12 21:49:05;;;;;;;;;;;;;;;13.04;53.69531;101838.5;;;;-82
2022/05/12 21:52:09;;;;;;;6.8;1.6;;;;;;;;;;;;;-81
2022/05/12 21:54:06;;;;;;;;;;;;;;;13.04;54.51367;101831;;;;-82
2022/05/12 22:04:12;;;;;;;;;;;;;;;13.05;55.09863;101821.9;;;;-83
2022/05/12 22:09:06;;;;;;;;;;;;;;;13.03;55.52051;101817.3;;;;-81
2022/05/12 22:14:08;;;;;;;;;;;;;;;13.04;55.84961;101809.1;;;;-82
2022/05/12 22:19:05;;;;;;;;;;;;;;;13.04;55.83789;101801.9;;;;-81
2022/05/12 22:22:10;;;;;;;8;1.6;;;;;;;;;;;;;-81
2022/05/12 22:24:06;;;;;;;;;;;;;;;13.03;55.95898;101800.9;;;;-81
2022/05/12 22:29:07;;;;;;;;;;;;;;;13.03;56.20605;101804.6;;;;-82
2022/05/12 22:34:05;;;;;;;;;;;;;;;13.02;56.10352;101805.4;;;;-82
2022/05/12 22:39:05;;;;;;;;;;;;;;;13;56.57227;101803.3;;;;-82
2022/05/12 22:44:09;;;;;;;;;;;;;;;12.99;56.79492;101802.2;;;;-81
2022/05/12 22:49:06;;;;;;;;;;;;;;;12.99;57.1416;101803.1;;;;-82
2022/05/12 22:52:11;;;;;;;6.5;1.4;;;;;;;;;;;;;-82
2022/05/12 22:54:05;;;;;;;;;;;;;;;12.99;57.7041;101802.8;;;;-81
2022/05/12 22:59:05;;;;;;;;;;;;;;;13;57.47949;101801.1;;;;-81
2022/05/12 23:04:05;;;;;;;;;;;;;;;13.02;57.85156;101801.6;;;;-82
2022/05/12 23:09:07;;;;;;;;;;;;;;;13.03;57.9541;101799.3;;;;-83
2022/05/12 23:14:08;;;;;;;;;;;;;;;13.05;58.29199;101790.5;;;;-81
2022/05/12 23:22:12;;;;;;;8.9;1.9;;;;;;;;;;;;;-82
2022/05/12 23:24:05;;;;;;;;;;;;;;;13.07;58.53125;101794;;;;-83
2022/05/12 23:29:05;;;;;;;;;;;;;;;13.1;59.0498;101789.3;;;;-83
2022/05/12 23:34:05;;;;;;;;;;;;;;;13.11;59.18555;101784.6;;;;-82
2022/05/12 23:39:06;;;;;;;;;;;;;;;13.14;59.22363;101786.5;;;;-81
2022/05/12 23:44:06;;;;;;;;;;;;;;;13.15;59.30371;101789.5;;;;-81
2022/05/12 23:49:06;;;;;;;;;;;;;;;13.17;59.38477;101783.3;;;;-82
2022/05/12 23:52:14;;;;;;;12.7;2.3;;;;;;;;;;;;;-83
2022/05/12 23:54:07;;;;;;;;;;;;;;;13.18;59.53125;101781.4;;;;-82
2022/05/12 23:59:05;;;;;;;;;;;;;;;13.19;59.72266;101778.1;;;;-82
